createdAt,value
2023-05-01T00:01:05.570Z,97919.47
2023-05-01T00:03:34.193Z,97903.53
2023-05-01T00:06:05.926Z,97927.19
2023-05-01T00:08:33.496Z,97930.63
2023-05-01T00:11:11.693Z,97920.31
2023-05-01T00:13:39.428Z,97886.06
2023-05-01T00:16:13.660Z,97903.38
2023-05-01T00:18:45.190Z,97895.00
2023-05-01T00:21:40.858Z,97923.94
2023-05-01T00:24:33.062Z,97912.22
2023-05-01T00:27:00.384Z,97903.94
2023-05-01T00:29:28.269Z,97910.53
2023-05-01T00:31:55.979Z,97927.56
2023-05-01T00:37:49.957Z,97917.34
2023-05-01T00:40:24.770Z,97923.38
2023-05-01T00:42:52.891Z,97881.34
2023-05-01T00:45:20.759Z,97911.94
2023-05-01T00:47:48.570Z,97895.16
2023-05-01T00:50:16.095Z,97896.59
2023-05-01T00:52:43.736Z,97887.63
2023-05-01T00:55:11.195Z,97904.28
2023-05-01T00:57:38.571Z,97881.81
2023-05-01T01:00:11.874Z,97913.66
2023-05-01T01:02:39.330Z,97914.50
2023-05-01T01:05:07.157Z,97905.84
2023-05-01T01:08:19.010Z,97879.72
2023-05-01T01:11:31.778Z,97910.53
2023-05-01T01:14:09.442Z,97911.56
2023-05-01T01:16:49.066Z,97912.03
2023-05-01T01:19:19.493Z,97930.06
2023-05-01T01:21:57.903Z,97897.19
2023-05-01T01:24:59.402Z,97915.97
2023-05-01T01:27:42.249Z,97919.75
2023-05-01T01:30:32.394Z,97910.94
2023-05-01T01:33:22.717Z,97911.69
2023-05-01T01:36:05.555Z,97888.47
2023-05-01T01:38:48.720Z,97876.94
2023-05-01T01:41:28.047Z,97884.88
2023-05-01T01:44:22.997Z,97922.50
2023-05-01T01:46:53.501Z,97903.78
2023-05-01T01:49:24.897Z,97927.53
2023-05-01T01:51:53.888Z,97935.91
2023-05-01T01:54:27.481Z,97920.84
2023-05-01T01:56:58.595Z,97909.13
2023-05-01T01:59:30.804Z,97918.69
2023-05-01T02:04:47.380Z,97894.69
2023-05-01T02:07:16.799Z,97926.53
2023-05-01T02:09:46.365Z,97916.69
2023-05-01T02:15:57.256Z,97940.34
2023-05-01T02:18:29.247Z,97940.59
2023-05-01T02:20:59.073Z,97955.50
2023-05-01T02:24:11.237Z,97940.41
2023-05-01T02:26:43.405Z,97947.59
2023-05-01T02:29:11.890Z,97950.44
2023-05-01T02:31:39.380Z,97952.13
2023-05-01T02:34:06.848Z,97950.72
2023-05-01T02:36:34.620Z,97920.19
2023-05-01T02:39:02.732Z,97958.00
2023-05-01T02:41:31.569Z,97952.44
2023-05-01T02:44:05.083Z,97941.34
2023-05-01T02:46:37.700Z,97936.78
2023-05-01T02:49:06.848Z,97958.69
2023-05-01T02:51:36.059Z,97973.41
2023-05-01T02:54:04.145Z,97960.91
2023-05-01T02:56:53.196Z,97973.69
2023-05-01T02:59:37.827Z,97972.19
2023-05-01T03:02:05.545Z,97969.97
2023-05-01T03:04:33.043Z,97944.31
2023-05-01T03:07:00.678Z,97968.41
2023-05-01T03:09:29.808Z,97984.34
2023-05-01T03:11:57.208Z,97974.59
2023-05-01T03:18:55.992Z,97998.59
2023-05-01T03:21:23.906Z,97973.84
2023-05-01T03:23:51.245Z,98006.66
2023-05-01T03:26:18.693Z,98012.75
2023-05-01T03:28:47.007Z,97983.00
2023-05-01T03:31:29.750Z,98002.75
2023-05-01T03:33:58.737Z,98006.50
2023-05-01T03:36:26.208Z,97997.75
2023-05-01T03:39:09.064Z,98031.63
2023-05-01T03:41:36.597Z,98004.50
2023-05-01T03:44:15.008Z,97994.97
2023-05-01T03:53:53.107Z,98023.47
2023-05-01T03:56:25.988Z,98028.66
2023-05-01T03:58:55.686Z,98026.63
2023-05-01T04:01:23.049Z,98024.13
2023-05-01T04:24:40.377Z,98050.13
2023-05-01T04:27:09.186Z,98014.81
2023-05-01T04:29:37.226Z,98027.72
2023-05-01T04:32:05.363Z,98048.31
2023-05-01T04:34:33.370Z,98046.59
2023-05-01T04:37:02.173Z,98074.00
2023-05-01T04:40:17.020Z,98118.50
2023-05-01T04:42:44.514Z,98100.53
2023-05-01T04:45:16.140Z,98082.69
2023-05-01T04:47:44.123Z,98058.94
2023-05-01T04:50:12.045Z,98076.72
2023-05-01T04:52:39.844Z,98047.94
2023-05-01T04:55:08.215Z,98080.22
2023-05-01T05:01:47.379Z,98072.31
2023-05-01T05:14:35.275Z,98070.63
2023-05-01T05:17:02.544Z,98075.19
2023-05-01T05:19:43.027Z,98079.38
2023-05-01T05:25:11.842Z,98045.31
2023-05-01T05:55:28.711Z,98112.28
2023-05-01T05:57:56.239Z,98094.19
2023-05-01T06:14:43.847Z,98141.25
2023-05-01T06:20:31.646Z,98133.25
2023-05-01T06:22:59.434Z,98126.50
2023-05-01T06:25:26.910Z,98154.59
2023-05-01T07:06:22.960Z,98178.75
2023-05-01T07:15:45.948Z,98168.50
2023-05-01T07:18:17.750Z,98179.63
2023-05-01T07:20:45.853Z,98182.31
2023-05-01T07:27:10.677Z,98208.00
2023-05-01T07:29:41.432Z,98163.00
2023-05-01T07:32:09.051Z,98187.94
2023-05-01T07:34:36.967Z,98196.22
2023-05-01T07:37:05.193Z,98208.44
2023-05-01T07:39:32.766Z,98183.56
2023-05-01T07:45:27.177Z,98208.88
2023-05-01T07:47:54.490Z,98211.97
2023-05-01T07:50:22.965Z,98246.31
2023-05-01T07:52:50.698Z,98227.06
2023-05-01T07:55:19.447Z,98242.84
2023-05-01T07:57:47.073Z,98261.31
2023-05-01T08:00:15.077Z,98263.59
2023-05-01T08:02:42.618Z,98255.97
2023-05-01T08:05:10.587Z,98282.28
2023-05-01T08:07:41.277Z,98284.69
2023-05-01T08:13:35.398Z,98330.16
2023-05-01T08:16:27.271Z,98352.56
2023-05-01T08:18:54.835Z,98329.69
2023-05-01T08:25:37.702Z,98338.84
2023-05-01T08:28:16.250Z,98317.19
2023-05-01T08:30:44.742Z,98290.53
2023-05-01T08:33:13.724Z,98299.19
2023-05-01T08:35:41.551Z,98268.22
2023-05-01T08:38:09.239Z,98256.25
2023-05-01T08:40:41.144Z,98263.09
2023-05-01T08:43:08.835Z,98255.81
2023-05-01T08:46:19.658Z,98296.84
2023-05-01T08:48:48.111Z,98279.03
2023-05-01T08:51:50.188Z,98301.53
2023-05-01T08:54:20.060Z,98276.44
2023-05-01T08:56:48.492Z,98289.94
2023-05-01T08:59:16.996Z,98286.19
2023-05-01T09:01:47.524Z,98269.72
2023-05-01T09:04:32.912Z,98288.94
2023-05-01T09:07:04.307Z,98291.97
2023-05-01T09:09:53.967Z,98300.28
2023-05-01T09:12:30.466Z,98273.09
2023-05-01T09:14:58.354Z,98287.28
2023-05-01T09:21:36.145Z,98303.00
2023-05-01T09:24:06.558Z,98242.97
2023-05-01T09:26:37.092Z,98265.13
2023-05-01T09:29:12.283Z,98242.88
2023-05-01T09:31:40.460Z,98266.97
2023-05-01T09:34:09.742Z,98244.03
2023-05-01T09:40:11.815Z,98206.28
2023-05-01T09:43:18.176Z,98218.63
2023-05-01T09:46:02.035Z,98204.53
2023-05-01T09:48:32.075Z,98205.91
2023-05-01T09:51:50.229Z,98219.97
2023-05-01T09:54:42.087Z,98219.94
2023-05-01T12:14:56.706Z,98376.19
2023-05-01T12:42:17.051Z,98395.41
2023-05-01T12:45:02.001Z,98398.44
2023-05-01T12:47:39.174Z,98351.78
2023-05-01T13:11:34.816Z,98406.00
2023-05-01T13:14:32.957Z,98392.25
2023-05-01T13:17:48.898Z,98390.16
2023-05-01T13:23:56.504Z,98366.81
2023-05-01T13:30:04.964Z,98400.56
2023-05-01T13:35:58.928Z,98414.03
2023-05-01T13:49:34.784Z,98444.84
2023-05-01T14:09:19.311Z,98407.41
2023-05-01T16:36:55.114Z,98535.94
2023-05-01T16:39:23.391Z,98575.41
2023-05-01T16:41:55.048Z,98570.19
2023-05-01T16:44:23.419Z,98549.00
2023-05-01T16:46:56.741Z,98600.22
2023-05-01T16:49:27.865Z,98597.34
2023-05-01T16:55:22.607Z,98574.28
2023-05-01T16:57:49.947Z,98590.66
2023-05-01T17:00:17.496Z,98602.31
2023-05-01T17:02:45.241Z,98589.91
2023-05-01T17:05:12.700Z,98608.41
2023-05-01T17:07:40.083Z,98623.63
2023-05-01T17:10:08.352Z,98646.69
2023-05-01T17:12:35.632Z,98613.72
2023-05-01T17:15:03.045Z,98629.63
2023-05-01T17:17:31.131Z,98604.81
2023-05-01T17:20:01.439Z,98609.63
2023-05-01T17:22:29.280Z,98641.91
2023-05-01T17:25:00.687Z,98668.03
2023-05-01T17:27:31.604Z,98633.69
2023-05-01T17:29:59.223Z,98674.06
2023-05-01T17:32:36.349Z,98657.78
2023-05-01T17:35:06.622Z,98648.16
2023-05-01T17:37:34.407Z,98634.63
2023-05-01T17:40:03.375Z,98646.19
2023-05-01T17:43:13.947Z,98687.63
2023-05-01T17:45:41.135Z,98655.25
2023-05-01T17:48:08.600Z,98658.47
2023-05-01T17:50:38.751Z,98677.34
2023-05-01T17:53:14.803Z,98662.66
2023-05-01T17:55:45.199Z,98641.56
2023-05-01T17:58:15.699Z,98674.28
2023-05-01T18:00:49.920Z,98656.31
2023-05-01T18:03:17.518Z,98671.31
2023-05-01T18:05:45.449Z,98685.41
2023-05-01T18:08:12.880Z,98693.00
2023-05-01T18:10:40.394Z,98700.44
2023-05-01T18:13:07.764Z,98689.03
2023-05-01T18:15:36.886Z,98681.63
2023-05-01T18:18:04.487Z,98704.63
2023-05-01T18:20:31.905Z,98680.25
2023-05-01T18:22:59.216Z,98684.31
2023-05-01T18:25:26.622Z,98720.28
2023-05-01T18:27:56.511Z,98724.41
2023-05-01T18:30:25.911Z,98716.91
2023-05-01T18:32:54.138Z,98709.59
2023-05-01T18:35:21.887Z,98722.28
2023-05-01T18:37:54.202Z,98711.44
2023-05-01T18:40:21.647Z,98722.22
2023-05-01T18:42:48.975Z,98750.16
2023-05-01T18:45:16.293Z,98735.00
2023-05-01T18:47:43.753Z,98736.44
2023-05-01T18:53:37.869Z,98741.97
2023-05-01T18:56:27.873Z,98768.59
2023-05-01T18:59:03.827Z,98717.06
2023-05-01T19:04:58.420Z,98723.53
2023-05-01T19:11:06.272Z,98745.44
2023-05-01T19:13:34.001Z,98760.16
2023-05-01T19:16:01.311Z,98766.78
2023-05-01T19:18:48.762Z,98783.66
2023-05-01T19:21:16.220Z,98782.97
2023-05-01T19:23:43.530Z,98789.97
2023-05-01T19:26:13.173Z,98781.38
2023-05-01T19:28:42.140Z,98777.50
2023-05-01T19:31:11.030Z,98806.03
2023-05-01T19:33:39.090Z,98809.91
2023-05-01T19:36:06.424Z,98815.19
2023-05-01T19:38:34.250Z,98821.78
2023-05-01T19:41:01.697Z,98831.97
2023-05-01T19:43:28.868Z,98845.66
2023-05-01T19:45:56.949Z,98815.50
2023-05-01T19:48:24.638Z,98812.69
2023-05-01T19:50:52.120Z,98840.59
2023-05-01T19:53:19.488Z,98837.44
2023-05-01T19:55:48.099Z,98841.56
2023-05-01T19:58:15.904Z,98858.78
2023-05-01T20:00:44.255Z,98844.66
2023-05-01T20:03:11.704Z,98844.88
2023-05-01T20:05:39.364Z,98849.28
2023-05-01T20:08:06.583Z,98837.34
2023-05-01T20:10:33.951Z,98858.56
2023-05-01T20:13:01.823Z,98858.88
2023-05-01T20:15:29.171Z,98843.72
2023-05-01T20:17:56.545Z,98831.41
2023-05-01T20:20:23.835Z,98858.78
2023-05-01T20:22:52.714Z,98839.31
2023-05-01T20:28:44.774Z,98823.56
2023-05-01T20:31:12.693Z,98842.09
2023-05-01T20:33:40.352Z,98848.47
2023-05-01T20:36:07.899Z,98849.63
2023-05-01T20:38:42.399Z,98840.22
2023-05-01T20:41:10.570Z,98830.56
2023-05-01T20:43:39.107Z,98814.16
2023-05-01T20:46:06.959Z,98834.44
2023-05-01T20:48:34.401Z,98815.59
2023-05-01T20:51:01.772Z,98828.94
2023-05-01T20:53:28.932Z,98809.22
2023-05-01T20:55:56.253Z,98848.69
2023-05-01T20:58:23.736Z,98851.91
2023-05-01T21:00:54.476Z,98856.44
2023-05-01T21:03:23.955Z,98847.59
2023-05-01T21:05:51.302Z,98848.78
2023-05-01T21:08:19.662Z,98864.97
2023-05-01T21:10:46.776Z,98849.13
2023-05-01T21:13:15.521Z,98857.81
2023-05-01T21:15:42.765Z,98843.19
2023-05-01T21:18:14.606Z,98872.25
2023-05-01T21:20:42.821Z,98876.66
2023-05-01T21:23:10.107Z,98881.63
2023-05-01T21:25:37.302Z,98895.09
2023-05-01T21:28:06.536Z,98894.88
2023-05-01T21:30:35.947Z,98881.59
2023-05-01T21:33:05.850Z,98892.22
2023-05-01T21:35:33.505Z,98894.09
2023-05-01T21:38:01.508Z,98902.84
2023-05-01T21:40:28.869Z,98879.53
2023-05-01T21:42:56.615Z,98900.00
2023-05-01T21:45:25.017Z,98909.59
2023-05-01T21:47:52.542Z,98906.75
2023-05-01T21:50:21.570Z,98903.81
2023-05-01T21:52:50.693Z,98927.00
2023-05-01T21:55:20.384Z,98939.38
2023-05-01T21:57:50.162Z,98944.09
2023-05-01T22:00:19.421Z,98925.06
2023-05-01T22:02:48.832Z,98928.59
2023-05-01T22:05:18.150Z,98949.19
2023-05-01T22:07:47.473Z,98947.81
2023-05-01T22:10:17.360Z,98962.38
2023-05-01T22:12:45.602Z,98968.19
2023-05-01T22:15:14.454Z,98956.66
2023-05-01T22:17:42.225Z,98959.22
2023-05-01T22:20:09.698Z,98943.47
2023-05-01T22:22:38.339Z,98958.31
2023-05-01T22:25:06.348Z,98973.47
2023-05-01T22:27:34.188Z,98976.38
2023-05-01T22:30:02.536Z,98978.38
2023-05-01T22:32:30.069Z,98985.28
2023-05-01T22:34:57.247Z,98997.41
2023-05-01T22:37:25.928Z,99007.13
2023-05-01T22:39:53.970Z,99006.63
2023-05-01T22:42:21.782Z,99017.19
2023-05-01T22:44:49.744Z,99013.75
2023-05-01T22:47:17.158Z,99033.81
2023-05-01T22:49:44.300Z,99022.66
2023-05-01T22:52:11.490Z,99026.00
2023-05-01T22:54:38.638Z,99019.03
2023-05-01T22:57:05.964Z,99030.63
2023-05-01T22:59:33.377Z,99038.44
2023-05-01T23:02:04.649Z,99034.47
2023-05-01T23:04:32.561Z,99027.09
2023-05-01T23:07:00.000Z,99029.69
2023-05-01T23:09:27.222Z,99042.28
2023-05-01T23:11:54.512Z,99048.06
2023-05-01T23:14:21.769Z,99068.25
2023-05-01T23:16:49.002Z,99062.53
2023-05-01T23:19:24.193Z,99071.41
2023-05-01T23:22:01.967Z,99051.88
2023-05-01T23:24:44.890Z,99083.06
2023-05-01T23:27:13.781Z,99078.72
2023-05-01T23:29:41.811Z,99083.00
2023-05-01T23:32:11.848Z,99084.88
2023-05-01T23:34:40.603Z,99087.75
2023-05-01T23:37:07.775Z,99083.88
2023-05-01T23:39:34.887Z,99108.03
2023-05-01T23:42:02.729Z,99124.19
2023-05-01T23:44:30.648Z,99118.00
2023-05-01T23:46:58.001Z,99138.28
2023-05-01T23:49:25.472Z,99147.69
2023-05-01T23:51:52.726Z,99141.34
2023-05-01T23:54:19.983Z,99145.16
2023-05-01T23:56:47.241Z,99137.59
2023-05-01T23:59:15.142Z,99128.91
